createdAt,value
2017-11-09T00:00:18.322Z,8.51
2017-11-09T00:01:18.646Z,8.47
2017-11-09T00:02:17.958Z,8.45
2017-11-09T00:03:18.268Z,8.42
2017-11-09T00:04:18.602Z,8.5
2017-11-09T00:05:18.240Z,8.45
2017-11-09T00:06:18.558Z,8.39
2017-11-09T00:07:18.537Z,8.42
2017-11-09T00:08:17.850Z,8.5
2017-11-09T00:09:18.162Z,8.5
2017-11-09T00:10:18.482Z,8.39
2017-11-09T00:11:18.468Z,8.42
2017-11-09T00:12:18.449Z,8.42
2017-11-09T00:13:18.439Z,8.44
2017-11-09T00:14:18.080Z,8.35
2017-11-09T00:15:18.065Z,8.42
2017-11-09T00:16:18.040Z,8.4
2017-11-09T00:17:18.020Z,8.44
2017-11-09T00:18:18.017Z,8.33
2017-11-09T00:19:17.991Z,8.47
2017-11-09T00:20:17.976Z,8.53
2017-11-09T00:21:17.958Z,8.47
2017-11-09T00:22:17.942Z,8.4
2017-11-09T00:23:18.247Z,8.4
2017-11-09T00:24:17.565Z,8.47
2017-11-09T00:25:18.216Z,8.39
2017-11-09T00:26:17.527Z,8.42
2017-11-09T00:27:18.185Z,8.4
2017-11-09T00:28:17.493Z,8.36
2017-11-09T00:29:18.151Z,8.42
2017-11-09T00:30:17.797Z,8.35
2017-11-09T00:31:18.108Z,8.42
2017-11-09T00:32:18.096Z,8.39
2017-11-09T00:33:17.760Z,8.42
2017-11-09T00:34:18.058Z,8.47
2017-11-09T00:35:17.362Z,8.4
2017-11-09T00:36:18.016Z,8.47
2017-11-09T00:37:17.339Z,8.3
2017-11-09T00:38:17.647Z,8.39
2017-11-09T00:39:17.632Z,8.4
2017-11-09T00:40:17.949Z,8.44
2017-11-09T00:41:17.594Z,8.4
2017-11-09T00:42:17.575Z,8.42
2017-11-09T00:43:17.908Z,8.35
2017-11-09T00:44:17.541Z,8.35
2017-11-09T00:45:17.526Z,8.33
2017-11-09T00:46:17.512Z,8.47
2017-11-09T00:47:17.486Z,8.32
2017-11-09T00:48:17.475Z,8.35
2017-11-09T00:49:17.455Z,8.32
2017-11-09T00:50:17.097Z,8.32
2017-11-09T00:51:17.081Z,8.48
2017-11-09T00:52:17.396Z,8.35
2017-11-09T00:53:17.382Z,8.39
2017-11-09T00:54:17.360Z,8.5
2017-11-09T00:55:17.677Z,8.45
2017-11-09T00:56:17.326Z,8.42
2017-11-09T00:57:17.313Z,8.36
2017-11-09T00:58:17.296Z,8.45
2017-11-09T00:59:17.272Z,8.4
2017-11-09T01:00:17.255Z,8.4
2017-11-09T01:01:17.238Z,8.35
2017-11-09T01:02:17.550Z,8.4
2017-11-09T01:03:16.865Z,8.4
2017-11-09T01:04:16.848Z,8.44
2017-11-09T01:05:17.163Z,8.4
2017-11-09T01:06:16.911Z,8.32
2017-11-09T01:07:17.126Z,8.33
2017-11-09T01:08:16.771Z,8.33
2017-11-09T01:09:17.093Z,8.33
2017-11-09T01:10:17.418Z,8.36
2017-11-09T01:11:17.397Z,8.33
2017-11-09T01:12:17.410Z,8.33
2017-11-09T01:13:17.024Z,8.36
2017-11-09T01:14:17.344Z,8.3
2017-11-09T01:15:16.987Z,8.33
2017-11-09T01:16:17.406Z,8.33
2017-11-09T01:17:17.290Z,8.37
2017-11-09T01:18:16.945Z,8.36
2017-11-09T01:19:16.922Z,8.35
2017-11-09T01:20:17.246Z,8.32
2017-11-09T01:21:16.548Z,8.33
2017-11-09T01:22:16.860Z,8.32
2017-11-09T01:23:16.846Z,8.35
2017-11-09T01:24:16.489Z,8.36
2017-11-09T01:25:16.805Z,8.35
2017-11-09T01:26:17.250Z,8.32
2017-11-09T01:27:17.118Z,8.3
2017-11-09T01:28:16.754Z,8.35
2017-11-09T01:29:17.073Z,8.35
2017-11-09T01:30:17.050Z,8.37
2017-11-09T01:31:16.701Z,8.28
2017-11-09T01:32:17.020Z,8.28
2017-11-09T01:33:17.017Z,8.35
2017-11-09T01:34:16.651Z,8.22
2017-11-09T01:35:16.972Z,8.32
2017-11-09T01:36:16.961Z,8.25
2017-11-09T01:37:16.257Z,8.18
2017-11-09T01:38:16.574Z,8.2
2017-11-09T01:39:16.900Z,8.15
2017-11-09T01:40:16.208Z,8.18
2017-11-09T01:41:16.870Z,8.21
2017-11-09T01:42:16.848Z,8.15
2017-11-09T01:43:16.825Z,8.15
2017-11-09T01:44:16.476Z,8.2
2017-11-09T01:45:16.787Z,8.15
2017-11-09T01:46:16.438Z,8.17
2017-11-09T01:47:16.964Z,8.18
2017-11-09T01:48:16.061Z,8.12
2017-11-09T01:49:16.384Z,8.15
2017-11-09T01:50:16.360Z,8.17
2017-11-09T01:51:16.688Z,8.22
2017-11-09T01:52:16.324Z,8.14
2017-11-09T01:53:16.658Z,8.18
2017-11-09T01:54:15.965Z,8.12
2017-11-09T01:55:15.935Z,8.14
2017-11-09T01:56:16.255Z,8.11
2017-11-09T01:57:16.572Z,8.12
2017-11-09T01:58:16.221Z,8.08
2017-11-09T01:59:16.210Z,8.17
2017-11-09T02:00:16.181Z,8.1
2017-11-09T02:01:16.504Z,8.15
2017-11-09T02:02:16.513Z,8.11
2017-11-09T02:03:16.129Z,8.11
2017-11-09T02:04:16.108Z,8.14
2017-11-09T02:05:16.420Z,8.14
2017-11-09T02:06:16.402Z,8.1
2017-11-09T02:07:16.051Z,8.15
2017-11-09T02:08:16.365Z,8.11
2017-11-09T02:09:16.354Z,8.17
2017-11-09T02:10:16.329Z,8.11
2017-11-09T02:11:16.316Z,8.17
2017-11-09T02:12:15.968Z,8.14
2017-11-09T02:13:15.949Z,8.11
2017-11-09T02:14:15.928Z,8.11
2017-11-09T02:15:15.916Z,8.14
2017-11-09T02:16:16.226Z,8.03
2017-11-09T02:17:16.209Z,8.1
2017-11-09T02:18:16.192Z,8.08
2017-11-09T02:19:16.175Z,8.1
2017-11-09T02:20:15.830Z,8.1
2017-11-09T02:21:15.806Z,8.08
2017-11-09T02:22:15.648Z,8.08
2017-11-09T02:23:16.126Z,8.08
2017-11-09T02:24:15.762Z,8.04
2017-11-09T02:25:15.728Z,8.1
2017-11-09T02:26:16.047Z,8.07
2017-11-09T02:27:15.798Z,8.1
2017-11-09T02:28:16.009Z,8.07
2017-11-09T02:29:15.998Z,8.08
2017-11-09T02:30:15.306Z,8.03
2017-11-09T02:31:15.614Z,8.1
2017-11-09T02:32:15.260Z,8.11
2017-11-09T02:33:15.930Z,8.07
2017-11-09T02:34:15.572Z,8.04
2017-11-09T02:35:15.209Z,8.04
2017-11-09T02:36:15.526Z,8.02
2017-11-09T02:37:16.054Z,8.02
2017-11-09T02:38:15.160Z,8.02
2017-11-09T02:39:15.478Z,8.03
2017-11-09T02:40:15.452Z,8.02
2017-11-09T02:41:15.461Z,8.07
2017-11-09T02:42:15.419Z,8.07
2017-11-09T02:43:15.739Z,8
2017-11-09T02:44:15.722Z,8
2017-11-09T02:45:15.724Z,8.02
2017-11-09T02:46:15.357Z,8.03
2017-11-09T02:47:14.988Z,8.04
2017-11-09T02:48:15.306Z,8
2017-11-09T02:49:15.295Z,8
2017-11-09T02:50:14.933Z,8.03
2017-11-09T02:51:15.588Z,8.04
2017-11-09T02:52:15.239Z,8.1
2017-11-09T02:53:15.552Z,8.14
2017-11-09T02:54:15.203Z,8.17
2017-11-09T02:55:15.181Z,8.12
2017-11-09T02:56:15.166Z,8.03
2017-11-09T02:57:15.150Z,8.1
2017-11-09T02:58:15.124Z,8.11
2017-11-09T02:59:15.114Z,8.04
2017-11-09T03:00:15.108Z,8.1
2017-11-09T03:01:15.075Z,8.14
2017-11-09T03:02:15.405Z,8.03
2017-11-09T03:03:15.041Z,8.1
2017-11-09T03:04:15.360Z,8.08
2017-11-09T03:05:15.005Z,8.1
2017-11-09T03:06:15.354Z,8.07
2017-11-09T03:07:15.302Z,8.08
2017-11-09T03:08:14.617Z,8.03
2017-11-09T03:09:14.928Z,8.03
2017-11-09T03:10:14.583Z,8.11
2017-11-09T03:11:15.226Z,8
2017-11-09T03:12:15.204Z,8.02
2017-11-09T03:13:15.200Z,8.04
2017-11-09T03:14:14.842Z,8.1
2017-11-09T03:15:14.816Z,8.08
2017-11-09T03:16:14.461Z,8.04
2017-11-09T03:17:14.787Z,8.04
2017-11-09T03:18:15.098Z,8.04
2017-11-09T03:19:15.084Z,8.04
2017-11-09T03:20:14.729Z,8.03
2017-11-09T03:21:14.713Z,8.07
2017-11-09T03:22:14.696Z,8.03
2017-11-09T03:23:14.778Z,8.02
2017-11-09T03:24:14.692Z,8.04
2017-11-09T03:25:14.997Z,8.1
2017-11-09T03:26:14.954Z,8.07
2017-11-09T03:27:14.607Z,8.1
2017-11-09T03:28:14.924Z,8.1
2017-11-09T03:29:14.929Z,8.07
2017-11-09T03:30:14.227Z,8.04
2017-11-09T03:31:14.546Z,8.07
2017-11-09T03:32:14.848Z,8.08
2017-11-09T03:33:14.598Z,8.07
2017-11-09T03:34:14.473Z,8.1
2017-11-09T03:35:14.789Z,8.04
2017-11-09T03:36:14.771Z,8.02
2017-11-09T03:37:14.754Z,8
2017-11-09T03:38:14.753Z,8.02
2017-11-09T03:39:14.385Z,8.02
2017-11-09T03:40:14.714Z,8.03
2017-11-09T03:41:14.354Z,8.03
2017-11-09T03:42:14.331Z,8.03
2017-11-09T03:43:14.698Z,8.08
2017-11-09T03:44:14.653Z,8.11
2017-11-09T03:45:14.629Z,8.04
2017-11-09T03:46:14.267Z,8.02
2017-11-09T03:47:14.102Z,8.08
2017-11-09T03:48:14.320Z,8.1
2017-11-09T03:49:14.210Z,8.03
2017-11-09T03:50:14.183Z,8.03
2017-11-09T03:51:14.501Z,8.08
2017-11-09T03:52:13.815Z,8.1
2017-11-09T03:53:14.128Z,8.04
2017-11-09T03:54:14.451Z,8.1
2017-11-09T03:55:13.772Z,8.12
2017-11-09T03:56:14.073Z,8.17
2017-11-09T03:57:14.392Z,8.07
2017-11-09T03:58:14.053Z,8.11
2017-11-09T03:59:14.020Z,8.08
2017-11-09T04:00:14.006Z,8.11
2017-11-09T04:01:14.345Z,8.11
2017-11-09T04:02:13.973Z,8.1
2017-11-09T04:03:13.960Z,8.1
2017-11-09T04:04:13.599Z,8.1
2017-11-09T04:05:14.269Z,8.11
2017-11-09T04:06:14.237Z,8.18
2017-11-09T04:07:13.877Z,8.15
2017-11-09T04:08:13.862Z,8.22
2017-11-09T04:09:13.855Z,8.11
2017-11-09T04:10:14.161Z,8.14
2017-11-09T04:11:14.156Z,8.15
2017-11-09T04:12:14.124Z,8.18
2017-11-09T04:13:14.103Z,8.2
2017-11-09T04:14:13.749Z,8.21
2017-11-09T04:15:14.064Z,8.1
2017-11-09T04:16:13.711Z,8.14
2017-11-09T04:17:14.031Z,8.1
2017-11-09T04:18:14.012Z,8.14
2017-11-09T04:19:13.665Z,8.14
2017-11-09T04:20:13.990Z,8.11
2017-11-09T04:21:13.963Z,8.17
2017-11-09T04:22:13.939Z,8.15
2017-11-09T04:23:13.252Z,8.22
2017-11-09T04:24:13.906Z,8.11
2017-11-09T04:25:13.221Z,8.17
2017-11-09T04:26:13.868Z,8.14
2017-11-09T04:27:13.855Z,8.18
2017-11-09T04:28:13.832Z,8.11
2017-11-09T04:29:13.589Z,8.14
2017-11-09T04:30:13.482Z,8.12
2017-11-09T04:31:13.787Z,8.1
2017-11-09T04:32:13.760Z,8.15
2017-11-09T04:33:13.754Z,8.1
2017-11-09T04:34:13.052Z,8.17
2017-11-09T04:35:13.712Z,8.1
2017-11-09T04:36:13.022Z,8.1
2017-11-09T04:37:13.332Z,8.14
2017-11-09T04:38:13.651Z,8.14
2017-11-09T04:39:13.740Z,8.04
2017-11-09T04:40:13.617Z,8.08
2017-11-09T04:41:13.276Z,8.08
2017-11-09T04:42:13.577Z,8.04
2017-11-09T04:43:13.224Z,8.04
2017-11-09T04:44:13.203Z,8.03
2017-11-09T04:45:13.525Z,8.03
2017-11-09T04:46:13.506Z,8.07
2017-11-09T04:47:13.152Z,8.02
2017-11-09T04:48:13.139Z,7.99
2017-11-09T04:49:13.120Z,7.99
2017-11-09T04:50:12.765Z,8
2017-11-09T04:51:13.421Z,8.02
2017-11-09T04:52:13.061Z,7.97
2017-11-09T04:53:12.714Z,8.02
2017-11-09T04:54:12.687Z,7.99
2017-11-09T04:55:13.015Z,8.04
2017-11-09T04:56:12.995Z,7.99
2017-11-09T04:57:12.640Z,8.02
2017-11-09T04:58:12.955Z,8
2017-11-09T04:59:12.940Z,7.97
2017-11-09T05:00:13.252Z,8
2017-11-09T05:01:13.239Z,7.97
2017-11-09T05:02:13.217Z,8.07
2017-11-09T05:03:12.857Z,8.02
2017-11-09T05:04:13.185Z,8.07
2017-11-09T05:05:12.828Z,8
2017-11-09T05:06:12.818Z,8.02
2017-11-09T05:07:13.136Z,8.02
2017-11-09T05:08:12.781Z,8.02
2017-11-09T05:09:13.112Z,8.12
2017-11-09T05:10:12.735Z,7.99
2017-11-09T05:11:13.053Z,8.07
2017-11-09T05:12:12.697Z,8.04
2017-11-09T05:13:13.019Z,8.14
2017-11-09T05:14:12.668Z,8.11
2017-11-09T05:15:12.979Z,8.11
2017-11-09T05:16:12.980Z,8.11
2017-11-09T05:17:12.958Z,8.11
2017-11-09T05:18:12.949Z,8.12
2017-11-09T05:19:12.907Z,8.14
2017-11-09T05:20:12.219Z,8.1
2017-11-09T05:21:12.204Z,8.17
2017-11-09T05:22:12.853Z,8.12
2017-11-09T05:23:12.832Z,8.12
2017-11-09T05:24:12.157Z,8.11
2017-11-09T05:25:12.479Z,8.15
2017-11-09T05:26:12.443Z,8.2
2017-11-09T05:27:12.425Z,8.11
2017-11-09T05:28:12.080Z,8.15
2017-11-09T05:29:12.397Z,8.14
2017-11-09T05:30:12.720Z,8.17
2017-11-09T05:31:12.357Z,8.17
2017-11-09T05:32:12.338Z,8.17
2017-11-09T05:33:12.657Z,8.18
2017-11-09T05:34:11.963Z,8.15
2017-11-09T05:35:12.715Z,8.21
2017-11-09T05:36:12.619Z,8.18
2017-11-09T05:37:12.579Z,8.18
2017-11-09T05:38:12.230Z,8.17
2017-11-09T05:39:12.209Z,8.25
2017-11-09T05:40:12.186Z,8.18
2017-11-09T05:41:12.176Z,8.25
2017-11-09T05:42:12.154Z,8.22
2017-11-09T05:43:12.478Z,8.28
2017-11-09T05:44:12.473Z,8.21
2017-11-09T05:45:12.214Z,8.29
2017-11-09T05:46:12.088Z,8.21
2017-11-09T05:47:12.599Z,8.3
2017-11-09T05:48:12.381Z,8.25
2017-11-09T05:49:12.030Z,8.22
2017-11-09T05:50:12.014Z,8.25
2017-11-09T05:51:12.332Z,8.18
2017-11-09T05:52:11.637Z,8.22
2017-11-09T05:53:11.620Z,8.2
2017-11-09T05:54:12.274Z,8.18
2017-11-09T05:55:12.259Z,8.29
2017-11-09T05:56:11.900Z,8.26
2017-11-09T05:57:12.226Z,8.22
2017-11-09T05:58:12.223Z,8.26
2017-11-09T05:59:11.858Z,8.3
2017-11-09T06:00:11.594Z,8.3
2017-11-09T06:01:11.477Z,8.33
2017-11-09T06:02:12.136Z,8.33
2017-11-09T06:03:12.111Z,8.32
2017-11-09T06:04:11.767Z,8.33
2017-11-09T06:05:12.102Z,8.29
2017-11-09T06:06:11.725Z,8.35
2017-11-09T06:07:11.707Z,8.32
2017-11-09T06:08:12.025Z,8.3
2017-11-09T06:09:12.007Z,8.3
2017-11-09T06:10:11.764Z,8.33
2017-11-09T06:11:11.978Z,8.33
2017-11-09T06:12:11.959Z,8.26
2017-11-09T06:13:11.620Z,8.3
2017-11-09T06:14:11.579Z,8.21
2017-11-09T06:15:11.562Z,8.26
2017-11-09T06:16:11.586Z,8.35
2017-11-09T06:17:11.860Z,8.26
2017-11-09T06:18:11.849Z,8.26
2017-11-09T06:19:11.860Z,8.3
2017-11-09T06:20:11.475Z,8.36
2017-11-09T06:21:11.787Z,8.32
2017-11-09T06:22:11.773Z,8.3
2017-11-09T06:23:11.419Z,8.32
2017-11-09T06:24:11.062Z,8.32
2017-11-09T06:25:11.383Z,8.36
2017-11-09T06:26:11.367Z,8.28
2017-11-09T06:27:11.684Z,8.26
2017-11-09T06:28:11.336Z,8.32
2017-11-09T06:29:11.642Z,8.29
2017-11-09T06:30:11.631Z,8.32
2017-11-09T06:31:11.613Z,8.35
2017-11-09T06:32:11.609Z,8.28
2017-11-09T06:33:10.903Z,8.22
2017-11-09T06:34:10.887Z,8.26
2017-11-09T06:35:11.549Z,8.26
2017-11-09T06:36:11.187Z,8.26
2017-11-09T06:37:11.507Z,8.3
2017-11-09T06:38:11.152Z,8.21
2017-11-09T06:39:10.798Z,8.2
2017-11-09T06:40:10.773Z,8.28
2017-11-09T06:41:11.548Z,8.25
2017-11-09T06:42:11.077Z,8.18
2017-11-09T06:43:11.397Z,8.15
2017-11-09T06:44:11.403Z,8.28
2017-11-09T06:45:10.696Z,8.22
2017-11-09T06:46:11.015Z,8.21
2017-11-09T06:47:11.319Z,8.18
2017-11-09T06:48:10.628Z,8.22
2017-11-09T06:49:10.952Z,8.25
2017-11-09T06:50:11.269Z,8.2
2017-11-09T06:51:11.348Z,8.22
2017-11-09T06:52:10.568Z,8.21
2017-11-09T06:53:10.882Z,8.22
2017-11-09T06:54:10.866Z,8.29
2017-11-09T06:55:11.182Z,8.2
2017-11-09T06:56:11.169Z,8.22
2017-11-09T06:57:10.810Z,8.25
2017-11-09T06:58:10.452Z,8.22
2017-11-09T06:59:10.774Z,8.21
2017-11-09T07:00:10.766Z,8.32
2017-11-09T07:01:11.075Z,8.17
2017-11-09T07:02:11.066Z,8.29
2017-11-09T07:03:10.708Z,8.2
2017-11-09T07:04:10.701Z,8.18
2017-11-09T07:05:10.662Z,8.2
2017-11-09T07:06:11.086Z,8.18
2017-11-09T07:07:10.976Z,8.28
2017-11-09T07:08:10.604Z,8.22
2017-11-09T07:09:10.587Z,8.18
2017-11-09T07:10:10.910Z,8.2
2017-11-09T07:11:10.553Z,8.2
2017-11-09T07:12:10.873Z,8.14
2017-11-09T07:13:10.514Z,8.21
2017-11-09T07:14:10.859Z,8.17
2017-11-09T07:15:10.483Z,8.12
2017-11-09T07:16:10.463Z,8.18
2017-11-09T07:17:10.440Z,8.22
2017-11-09T07:18:10.756Z,8.21
2017-11-09T07:19:10.407Z,8.22
2017-11-09T07:20:10.392Z,8.2
2017-11-09T07:21:10.365Z,8.2
2017-11-09T07:22:10.371Z,8.17
2017-11-09T07:23:10.687Z,8.22
2017-11-09T07:24:10.310Z,8.2
2017-11-09T07:25:10.293Z,8.14
2017-11-09T07:26:09.948Z,8.21
2017-11-09T07:27:09.926Z,8.29
2017-11-09T07:28:09.905Z,8.22
2017-11-09T07:29:10.228Z,8.15
2017-11-09T07:30:10.204Z,8.32
2017-11-09T07:31:10.189Z,8.32
2017-11-09T07:32:09.836Z,8.32
2017-11-09T07:33:10.156Z,8.32
2017-11-09T07:34:10.132Z,8.33
2017-11-09T07:35:10.451Z,8.35
2017-11-09T07:36:10.431Z,8.22
2017-11-09T07:37:10.433Z,8.28
2017-11-09T07:38:10.075Z,8.33
2017-11-09T07:39:10.046Z,8.29
2017-11-09T07:40:09.685Z,8.32
2017-11-09T07:41:10.017Z,8.26
2017-11-09T07:42:10.322Z,8.32
2017-11-09T07:43:10.312Z,8.33
2017-11-09T07:44:09.953Z,8.32
2017-11-09T07:45:10.277Z,8.39
2017-11-09T07:46:09.922Z,8.3
2017-11-09T07:47:10.295Z,8.32
2017-11-09T07:48:09.553Z,8.33
2017-11-09T07:49:09.525Z,8.32
2017-11-09T07:50:10.181Z,8.32
2017-11-09T07:51:09.837Z,8.32
2017-11-09T07:52:09.807Z,8.36
2017-11-09T07:53:10.132Z,8.35
2017-11-09T07:54:10.104Z,8.42
2017-11-09T07:55:09.756Z,8.37
2017-11-09T07:56:10.069Z,8.44
2017-11-09T07:57:09.716Z,8.5
2017-11-09T07:58:09.759Z,8.48
2017-11-09T07:59:09.710Z,8.44
2017-11-09T08:00:10.009Z,8.45
2017-11-09T08:01:09.653Z,8.42
2017-11-09T08:02:09.295Z,8.57
2017-11-09T08:03:09.613Z,8.51
2017-11-09T08:04:09.947Z,8.6
2017-11-09T08:05:09.570Z,8.57
2017-11-09T08:06:09.561Z,8.54
2017-11-09T08:07:09.200Z,8.55
2017-11-09T08:08:09.537Z,8.57
2017-11-09T08:09:09.163Z,8.58
2017-11-09T08:10:09.146Z,8.54
2017-11-09T08:11:09.473Z,8.54
2017-11-09T08:12:09.791Z,8.57
2017-11-09T08:13:09.789Z,8.54
2017-11-09T08:14:09.774Z,8.6
2017-11-09T08:15:09.408Z,8.58
2017-11-09T08:16:09.706Z,8.63
2017-11-09T08:17:09.693Z,8.6
2017-11-09T08:18:09.006Z,8.62
2017-11-09T08:19:09.322Z,8.68
2017-11-09T08:20:09.651Z,8.6
2017-11-09T08:21:09.283Z,8.58
2017-11-09T08:22:09.270Z,8.63
2017-11-09T08:23:09.259Z,8.73
2017-11-09T08:24:09.237Z,8.71
2017-11-09T08:25:08.879Z,8.72
2017-11-09T08:26:09.191Z,8.73
2017-11-09T08:27:09.508Z,8.58
2017-11-09T08:28:09.493Z,8.68
2017-11-09T08:29:09.481Z,8.73
2017-11-09T08:30:09.459Z,8.69
2017-11-09T08:31:09.106Z,8.71
2017-11-09T08:32:09.090Z,8.69
2017-11-09T08:33:08.733Z,8.71
2017-11-09T08:34:09.058Z,8.73
2017-11-09T08:35:09.043Z,8.72
2017-11-09T08:36:09.359Z,8.73
2017-11-09T08:37:09.342Z,8.71
2017-11-09T08:38:08.982Z,8.73
2017-11-09T08:39:09.302Z,8.73
2017-11-09T08:40:08.951Z,8.73
2017-11-09T08:41:09.271Z,8.72
2017-11-09T08:42:09.249Z,8.76
2017-11-09T08:43:08.894Z,8.71
2017-11-09T08:44:09.235Z,8.71
2017-11-09T08:45:09.199Z,8.79
2017-11-09T08:46:08.510Z,8.88
2017-11-09T08:47:09.259Z,8.87
2017-11-09T08:48:08.472Z,8.86
2017-11-09T08:49:09.127Z,8.94
2017-11-09T08:50:08.768Z,8.97
2017-11-09T08:51:08.417Z,8.9
2017-11-09T08:52:08.732Z,8.9
2017-11-09T08:53:09.065Z,8.94
2017-11-09T08:54:09.054Z,8.97
2017-11-09T08:55:08.346Z,8.99
2017-11-09T08:56:08.666Z,9.05
2017-11-09T08:57:08.995Z,9.12
2017-11-09T08:58:08.631Z,9.13
2017-11-09T08:59:08.273Z,9.09
2017-11-09T09:00:08.934Z,9.18
2017-11-09T09:01:08.918Z,9.24
2017-11-09T09:02:08.562Z,9.3
2017-11-09T09:03:08.577Z,9.25
2017-11-09T09:04:08.190Z,9.38
2017-11-09T09:05:08.872Z,9.39
2017-11-09T09:06:08.492Z,9.4
2017-11-09T09:07:08.917Z,9.42
2017-11-09T09:08:08.793Z,9.43
2017-11-09T09:09:08.441Z,9.4
2017-11-09T09:10:08.765Z,9.42
2017-11-09T09:11:08.743Z,9.53
2017-11-09T09:12:08.728Z,9.58
2017-11-09T09:13:08.377Z,9.61
2017-11-09T09:14:08.690Z,9.6
2017-11-09T09:15:08.002Z,9.76
2017-11-09T09:16:08.327Z,9.79
2017-11-09T09:17:08.749Z,9.78
2017-11-09T09:18:07.961Z,9.7
2017-11-09T09:19:08.268Z,9.75
2017-11-09T09:20:08.595Z,9.7
2017-11-09T09:21:08.632Z,9.82
2017-11-09T09:22:08.560Z,9.83
2017-11-09T09:23:08.210Z,9.91
2017-11-09T09:24:08.199Z,9.93
2017-11-09T09:25:08.186Z,10.09
2017-11-09T09:26:08.523Z,10.21
2017-11-09T09:27:07.803Z,10.36
2017-11-09T09:28:08.129Z,10.37
2017-11-09T09:29:08.112Z,10.43
2017-11-09T09:30:08.427Z,10.4
2017-11-09T09:31:08.459Z,10.39
2017-11-09T09:32:08.412Z,10.34
2017-11-09T09:33:08.049Z,10.33
2017-11-09T09:34:08.031Z,10.3
2017-11-09T09:35:08.017Z,10.32
2017-11-09T09:36:08.009Z,10.24
2017-11-09T09:37:07.986Z,10.36
2017-11-09T09:38:08.302Z,10.25
2017-11-09T09:39:07.965Z,10.21
2017-11-09T09:40:08.285Z,10.21
2017-11-09T09:41:07.922Z,10.14
2017-11-09T09:42:08.247Z,10.06
2017-11-09T09:43:07.890Z,10.03
2017-11-09T09:44:07.876Z,10.12
2017-11-09T09:45:07.868Z,10.03
2017-11-09T09:46:08.189Z,10.15
2017-11-09T09:47:07.498Z,10.01
2017-11-09T09:48:08.150Z,10.1
2017-11-09T09:49:07.461Z,10.12
2017-11-09T09:50:07.445Z,10.06
2017-11-09T09:51:08.111Z,10
2017-11-09T09:52:08.095Z,9.96
2017-11-09T09:53:07.734Z,9.96
2017-11-09T09:54:07.731Z,9.97
2017-11-09T09:55:08.039Z,9.93
2017-11-09T09:56:07.687Z,9.91
2017-11-09T09:57:07.676Z,9.93
2017-11-09T09:58:07.990Z,10.01
2017-11-09T09:59:07.645Z,9.96
2017-11-09T10:00:07.977Z,10.01
2017-11-09T10:01:07.942Z,9.97
2017-11-09T10:02:07.591Z,9.94
2017-11-09T10:03:07.912Z,9.99
2017-11-09T10:04:07.554Z,10.01
2017-11-09T10:05:07.541Z,9.99
2017-11-09T10:06:07.523Z,10.03
2017-11-09T10:07:07.848Z,10.07
2017-11-09T10:08:07.829Z,10.01
2017-11-09T10:09:07.477Z,10.06
2017-11-09T10:10:07.463Z,10.06
2017-11-09T10:11:07.108Z,10.01
2017-11-09T10:12:07.767Z,10.09
2017-11-09T10:13:07.416Z,10.09
2017-11-09T10:14:07.061Z,10.18
2017-11-09T10:15:07.392Z,10.21
2017-11-09T10:16:07.364Z,10.17
2017-11-09T10:17:07.349Z,10.17
2017-11-09T10:18:07.771Z,10.07
2017-11-09T10:19:07.650Z,10
2017-11-09T10:20:07.295Z,9.97
2017-11-09T10:21:07.622Z,9.91
2017-11-09T10:22:07.621Z,9.94
2017-11-09T10:23:07.586Z,9.93
2017-11-09T10:24:07.237Z,9.89
2017-11-09T10:25:07.229Z,9.94
2017-11-09T10:26:07.208Z,9.94
2017-11-09T10:27:07.529Z,9.94
2017-11-09T10:28:07.172Z,9.93
2017-11-09T10:29:07.518Z,9.96
2017-11-09T10:30:07.505Z,9.94
2017-11-09T10:31:07.128Z,9.97
2017-11-09T10:32:07.100Z,9.99
2017-11-09T10:33:07.425Z,9.96
2017-11-09T10:34:07.068Z,9.91
2017-11-09T10:35:07.406Z,9.97
2017-11-09T10:36:07.374Z,10.03
2017-11-09T10:37:07.021Z,10.04
2017-11-09T10:38:07.350Z,10.12
2017-11-09T10:39:07.328Z,10.09
2017-11-09T10:40:06.979Z,10.18
2017-11-09T10:41:07.303Z,10
2017-11-09T10:42:07.205Z,10.03
2017-11-09T10:43:07.520Z,10.06
2017-11-09T10:44:06.574Z,10.04
2017-11-09T10:45:07.241Z,10.01
2017-11-09T10:46:06.882Z,9.94
2017-11-09T10:47:06.519Z,10.01
2017-11-09T10:48:06.941Z,9.91
2017-11-09T10:49:07.193Z,9.85
2017-11-09T10:50:06.815Z,9.86
2017-11-09T10:51:06.792Z,9.86
2017-11-09T10:52:07.117Z,9.96
2017-11-09T10:53:06.767Z,9.93
2017-11-09T10:54:07.084Z,9.86
2017-11-09T10:55:06.752Z,10
2017-11-09T10:56:06.740Z,9.91
2017-11-09T10:57:06.705Z,10.01
2017-11-09T10:58:06.489Z,9.91
2017-11-09T10:59:06.676Z,10.01
2017-11-09T11:00:06.651Z,10
2017-11-09T11:01:06.630Z,10.03
2017-11-09T11:02:06.969Z,10.09
2017-11-09T11:03:06.260Z,10.04
2017-11-09T11:04:06.920Z,10.04
2017-11-09T11:05:06.909Z,10.1
2017-11-09T11:06:06.893Z,10
2017-11-09T11:07:06.871Z,10.09
2017-11-09T11:08:06.283Z,9.97
2017-11-09T11:09:06.499Z,9.97
2017-11-09T11:10:06.866Z,9.99
2017-11-09T11:11:06.806Z,9.93
2017-11-09T11:12:06.783Z,9.93
2017-11-09T11:13:06.104Z,9.91
2017-11-09T11:14:06.753Z,9.94
2017-11-09T11:15:06.739Z,9.93
2017-11-09T11:16:06.714Z,9.96
2017-11-09T11:17:06.033Z,9.85
2017-11-09T11:18:06.692Z,9.89
2017-11-09T11:19:06.348Z,9.86
2017-11-09T11:20:06.325Z,9.79
2017-11-09T11:21:05.973Z,9.85
2017-11-09T11:22:06.619Z,9.85
2017-11-09T11:23:06.618Z,9.82
2017-11-09T11:24:06.589Z,9.88
2017-11-09T11:25:05.903Z,9.88
2017-11-09T11:26:05.881Z,9.88
2017-11-09T11:27:06.218Z,9.94
2017-11-09T11:28:06.183Z,9.97
2017-11-09T11:29:06.172Z,9.93
2017-11-09T11:30:06.155Z,9.86
2017-11-09T11:31:05.796Z,9.93
2017-11-09T11:32:06.119Z,9.91
2017-11-09T11:33:06.448Z,9.88
2017-11-09T11:34:06.524Z,9.97
2017-11-09T11:35:06.072Z,9.88
2017-11-09T11:36:05.711Z,9.88
2017-11-09T11:37:06.035Z,9.83
2017-11-09T11:38:06.016Z,9.73
2017-11-09T11:39:05.995Z,9.79
2017-11-09T11:40:06.347Z,9.71
2017-11-09T11:41:05.985Z,9.68
2017-11-09T11:42:06.290Z,9.71
2017-11-09T11:43:06.271Z,9.78
2017-11-09T11:44:06.317Z,9.83
2017-11-09T11:45:05.908Z,9.71
2017-11-09T11:46:05.882Z,9.82
2017-11-09T11:47:05.865Z,9.82
2017-11-09T11:48:05.713Z,9.76
2017-11-09T11:49:05.935Z,9.85
2017-11-09T11:50:05.826Z,9.78
2017-11-09T11:51:05.801Z,9.79
2017-11-09T11:52:05.788Z,9.79
2017-11-09T11:53:05.421Z,9.79
2017-11-09T11:54:05.803Z,9.82
2017-11-09T11:55:05.726Z,9.86
2017-11-09T11:56:06.046Z,9.82
2017-11-09T11:57:05.361Z,9.94
2017-11-09T11:58:05.679Z,9.93
2017-11-09T11:59:06.005Z,9.86
2017-11-09T12:00:05.650Z,9.99
2017-11-09T12:01:05.620Z,9.83
2017-11-09T12:02:05.264Z,9.88
2017-11-09T12:03:05.588Z,9.97
2017-11-09T12:04:05.914Z,10
2017-11-09T12:05:05.549Z,10.03
2017-11-09T12:06:05.892Z,9.89
2017-11-09T12:07:05.522Z,9.96
2017-11-09T12:08:05.839Z,9.96
2017-11-09T12:09:05.584Z,9.94
2017-11-09T12:10:05.478Z,10.06
2017-11-09T12:11:05.799Z,10.06
2017-11-09T12:12:05.101Z,10.07
2017-11-09T12:13:05.418Z,10.17
2017-11-09T12:14:05.447Z,10.21
2017-11-09T12:15:05.045Z,10.21
2017-11-09T12:16:05.386Z,10.3
2017-11-09T12:17:05.689Z,10.33
2017-11-09T12:18:05.334Z,10.34
2017-11-09T12:19:05.436Z,10.34
2017-11-09T12:20:05.303Z,10.36
2017-11-09T12:21:05.631Z,10.3
2017-11-09T12:22:05.268Z,10.32
2017-11-09T12:23:05.582Z,10.3
2017-11-09T12:24:05.424Z,10.33
2017-11-09T12:25:05.219Z,10.32
2017-11-09T12:26:05.560Z,10.34
2017-11-09T12:27:05.543Z,10.22
2017-11-09T12:28:05.173Z,10.21
2017-11-09T12:29:05.151Z,10.18
2017-11-09T12:30:05.134Z,10.15
2017-11-09T12:31:04.782Z,10.15
2017-11-09T12:32:05.105Z,10.19
2017-11-09T12:33:05.423Z,10.07
2017-11-09T12:34:05.076Z,10.1
2017-11-09T12:35:05.428Z,10.19
2017-11-09T12:36:05.042Z,10.32
2017-11-09T12:37:05.024Z,10.4
2017-11-09T12:38:04.671Z,10.63
2017-11-09T12:39:05.001Z,10.81
2017-11-09T12:40:04.973Z,10.78
2017-11-09T12:41:04.619Z,10.74
2017-11-09T12:42:04.951Z,10.88
2017-11-09T12:43:05.264Z,10.86
2017-11-09T12:44:04.574Z,10.73
2017-11-09T12:45:04.906Z,10.78
2017-11-09T12:46:04.879Z,10.88
2017-11-09T12:47:04.864Z,11.02
2017-11-09T12:48:05.189Z,11.09
2017-11-09T12:49:04.835Z,11.11
2017-11-09T12:50:05.152Z,11.02
2017-11-09T12:51:04.799Z,10.94
2017-11-09T12:52:04.792Z,10.95
2017-11-09T12:53:04.780Z,10.88
2017-11-09T12:54:04.762Z,10.95
2017-11-09T12:55:04.750Z,11.03
2017-11-09T12:56:04.392Z,11.07
2017-11-09T12:57:04.378Z,11.2
2017-11-09T12:58:05.045Z,11.11
2017-11-09T12:59:04.343Z,11.11
2017-11-09T13:00:04.675Z,11.11
2017-11-09T13:01:04.987Z,11.13
2017-11-09T13:02:04.636Z,11.19
2017-11-09T13:03:04.628Z,10.99
2017-11-09T13:04:04.269Z,11.03
2017-11-09T13:05:04.622Z,11.09
2017-11-09T13:06:04.577Z,11.03
2017-11-09T13:07:04.220Z,11.14
2017-11-09T13:08:04.875Z,11.09
2017-11-09T13:09:04.541Z,11.07
2017-11-09T13:10:04.525Z,11.07
2017-11-09T13:11:04.497Z,10.98
2017-11-09T13:12:04.487Z,11.03
2017-11-09T13:13:04.472Z,10.95
2017-11-09T13:14:04.116Z,10.81
2017-11-09T13:15:04.780Z,10.71
2017-11-09T13:16:04.421Z,10.71
2017-11-09T13:17:04.412Z,10.62
2017-11-09T13:18:04.726Z,10.62